createdAt,value
2022-12-19T00:04:37.059Z,101201.09
2022-12-19T00:09:38.616Z,101203.69
2022-12-19T00:14:40.146Z,101201.88
2022-12-19T00:19:41.737Z,101193.28
2022-12-19T00:24:43.630Z,101188.75
2022-12-19T00:29:45.041Z,101184.41
2022-12-19T00:34:46.844Z,101186.06
2022-12-19T00:39:48.450Z,101184.22
2022-12-19T00:44:50.152Z,101178.09
2022-12-19T00:49:51.570Z,101181.66
2022-12-19T00:54:53.980Z,101174.63
2022-12-19T00:59:55.656Z,101190.25
2022-12-19T01:04:57.066Z,101182.25
2022-12-19T01:09:58.490Z,101170.84
2022-12-19T01:15:04.623Z,101170.81
2022-12-19T01:20:07.118Z,101188.25
2022-12-19T01:25:08.759Z,101180.31
2022-12-19T01:30:10.838Z,101192.53
2022-12-19T01:35:21.378Z,101180.25
2022-12-19T01:40:24.078Z,101176.06
2022-12-19T01:45:34.994Z,101156.94
2022-12-19T01:51:01.412Z,101155.28
2022-12-19T01:56:09.354Z,101151.75
2022-12-19T02:01:10.813Z,101160.38
2022-12-19T02:06:13.460Z,101157.66
2022-12-19T02:11:15.385Z,101128.91
2022-12-19T02:16:38.484Z,101137.63
2022-12-19T02:22:06.047Z,101141.03
2022-12-19T02:27:24.132Z,101137.50
2022-12-19T02:32:42.723Z,101125.16
2022-12-19T02:38:06.862Z,101104.16
2022-12-19T02:43:14.945Z,101108.47
2022-12-19T02:48:19.453Z,101098.00
2022-12-19T02:53:24.061Z,101112.97
2022-12-19T02:58:28.331Z,101110.19
2022-12-19T03:03:52.036Z,101082.28
2022-12-19T03:09:11.378Z,101075.41
2022-12-19T03:14:18.458Z,101083.38
2022-12-19T03:19:19.977Z,101092.03
2022-12-19T03:24:21.693Z,101086.03
2022-12-19T03:29:42.849Z,101081.41
2022-12-19T03:34:57.990Z,101080.66
2022-12-19T03:40:07.194Z,101084.06
2022-12-19T03:45:10.757Z,101090.03
2022-12-19T03:50:12.343Z,101076.97
2022-12-19T03:55:21.503Z,101081.19
2022-12-19T04:00:25.337Z,101081.16
2022-12-19T04:05:28.927Z,101082.63
2022-12-19T04:10:32.478Z,101080.84
2022-12-19T04:15:49.690Z,101077.53
2022-12-19T04:20:58.020Z,101073.88
2022-12-19T04:26:03.267Z,101058.09
2022-12-19T04:31:06.745Z,101073.94
2022-12-19T04:36:10.419Z,101062.69
2022-12-19T04:41:12.582Z,101054.88
2022-12-19T04:46:14.062Z,101045.19
2022-12-19T04:51:16.091Z,101047.03
2022-12-19T04:56:17.642Z,101042.66
2022-12-19T05:01:19.055Z,101040.94
2022-12-19T05:06:20.653Z,101039.91
2022-12-19T05:11:23.220Z,101031.06
2022-12-19T05:16:24.905Z,101040.63
2022-12-19T05:21:26.430Z,101038.72
2022-12-19T05:26:28.273Z,101043.97
2022-12-19T05:31:30.001Z,101031.75
2022-12-19T05:36:32.719Z,101032.75
2022-12-19T05:41:34.450Z,101035.38
2022-12-19T05:46:36.098Z,101036.97
2022-12-19T05:51:37.625Z,101039.50
2022-12-19T05:56:39.184Z,101029.84
2022-12-19T06:01:40.813Z,101029.91
2022-12-19T06:06:42.534Z,101035.00
2022-12-19T06:11:43.959Z,101031.56
2022-12-19T06:16:45.327Z,101033.19
2022-12-19T06:21:48.529Z,101040.88
2022-12-19T06:26:50.287Z,101046.00
2022-12-19T06:31:51.664Z,101050.09
2022-12-19T06:36:53.039Z,101034.31
2022-12-19T06:42:13.818Z,101042.13
2022-12-19T06:47:20.101Z,101041.25
2022-12-19T06:52:22.334Z,101044.63
2022-12-19T06:57:23.778Z,101033.34
2022-12-19T07:02:30.447Z,101021.78
2022-12-19T07:07:33.040Z,101032.09
2022-12-19T07:12:35.474Z,101027.03
2022-12-19T07:17:37.815Z,101015.03
2022-12-19T07:22:39.856Z,101014.97
2022-12-19T07:27:41.330Z,101032.00
2022-12-19T07:32:42.969Z,101033.41
2022-12-19T07:37:44.644Z,101021.19
2022-12-19T07:42:46.078Z,101027.38
2022-12-19T07:47:47.976Z,101035.13
2022-12-19T07:52:49.486Z,101041.22
2022-12-19T07:57:50.825Z,101037.59
2022-12-19T08:02:52.355Z,101032.38
2022-12-19T08:07:54.645Z,101034.88
2022-12-19T08:12:56.063Z,101021.78
2022-12-19T08:17:57.491Z,101032.84
2022-12-19T08:22:58.873Z,101023.19
2022-12-19T08:28:00.338Z,101040.66
2022-12-19T08:33:02.288Z,101036.75
2022-12-19T08:38:03.774Z,101032.16
2022-12-19T08:43:05.338Z,101019.91
2022-12-19T08:48:07.663Z,101028.78
2022-12-19T08:53:09.154Z,101030.41
2022-12-19T08:58:10.505Z,101010.47
2022-12-19T09:03:12.223Z,101015.50
2022-12-19T09:08:14.817Z,101031.81
2022-12-19T09:13:16.544Z,101024.06
2022-12-19T09:18:19.068Z,101025.81
2022-12-19T09:23:28.893Z,101032.72
2022-12-19T09:28:30.669Z,101026.41
2022-12-19T09:33:41.209Z,101020.97
2022-12-19T09:38:45.541Z,101013.94
2022-12-19T09:44:04.989Z,101017.28
2022-12-19T09:49:13.457Z,101020.63
2022-12-19T09:54:28.420Z,101024.25
2022-12-19T09:59:41.248Z,101018.88
2022-12-19T10:04:52.755Z,101022.44
2022-12-19T10:12:36.266Z,101011.19
2022-12-19T10:16:00.584Z,101008.41
2022-12-19T10:21:59.040Z,101009.94
2022-12-19T10:26:57.915Z,100987.91
2022-12-19T10:32:19.985Z,100984.94
2022-12-19T10:37:31.450Z,100979.59
2022-12-19T10:42:41.799Z,100975.25
2022-12-19T10:47:43.253Z,100970.88
2022-12-19T10:52:47.424Z,100980.22
2022-12-19T10:57:49.019Z,100976.34
2022-12-19T11:03:04.656Z,100971.72
2022-12-19T11:08:06.211Z,100947.16
2022-12-19T11:19:21.212Z,100929.59
2022-12-19T11:29:15.712Z,100922.81
2022-12-19T11:30:48.176Z,100926.91
2022-12-19T11:35:37.140Z,100921.38
2022-12-19T11:40:49.545Z,100927.31
2022-12-19T11:46:09.154Z,100910.88
2022-12-19T11:51:40.213Z,100904.69
2022-12-19T11:56:42.071Z,100897.53
2022-12-19T12:02:01.186Z,100900.00
2022-12-19T12:07:08.434Z,100886.91
2022-12-19T12:19:48.626Z,100878.63
2022-12-19T12:22:47.397Z,100872.53
2022-12-19T12:31:53.736Z,100881.19
2022-12-19T12:31:57.402Z,100861.78
2022-12-19T12:41:19.469Z,100851.16
2022-12-19T12:46:26.271Z,100844.06
2022-12-19T12:51:28.873Z,100855.41
2022-12-19T12:56:31.877Z,100852.66
2022-12-19T13:01:35.231Z,100860.00
2022-12-19T13:06:43.362Z,100853.84
2022-12-19T13:12:14.202Z,100844.06
2022-12-19T13:17:44.037Z,100840.16
2022-12-19T13:23:20.891Z,100831.63
2022-12-19T13:28:24.592Z,100826.19
2022-12-19T13:33:45.926Z,100827.75
2022-12-19T13:39:54.031Z,100825.88
2022-12-19T13:44:12.719Z,100826.06
2022-12-19T13:49:17.486Z,100834.84
2022-12-19T13:54:32.863Z,100822.78
2022-12-19T13:59:38.384Z,100825.28
2022-12-19T14:04:41.108Z,100824.81
2022-12-19T14:11:28.391Z,100815.03
2022-12-19T14:15:28.937Z,100810.78
2022-12-19T14:22:09.531Z,100805.66
2022-12-19T14:28:21.001Z,100828.22
2022-12-19T14:31:19.192Z,100830.56
2022-12-19T14:36:27.134Z,100814.91
2022-12-19T14:41:47.635Z,100819.19
2022-12-19T14:53:52.151Z,100812.97
2022-12-19T14:54:46.942Z,100820.53
2022-12-19T14:58:54.064Z,100811.91
2022-12-19T15:04:49.200Z,100813.56
2022-12-19T15:11:01.040Z,100802.81
2022-12-19T15:14:54.530Z,100802.31
2022-12-19T15:20:00.114Z,100801.25
2022-12-19T15:25:01.898Z,100804.78
2022-12-19T15:30:03.686Z,100796.06
2022-12-19T15:35:11.806Z,100772.59
2022-12-19T15:40:16.542Z,100779.81
2022-12-19T15:45:21.492Z,100779.94
2022-12-19T15:50:26.673Z,100781.81
2022-12-19T15:55:30.033Z,100792.25
2022-12-19T16:00:36.928Z,100782.69
2022-12-19T16:05:38.489Z,100764.41
2022-12-19T16:10:41.215Z,100766.09
2022-12-19T16:15:42.808Z,100763.25
2022-12-19T16:20:44.351Z,100755.50
2022-12-19T16:25:51.474Z,100760.75
2022-12-19T16:30:55.223Z,100759.03
2022-12-19T16:36:06.669Z,100738.00
2022-12-19T16:41:16.782Z,100742.38
2022-12-19T16:46:23.820Z,100736.22
2022-12-19T16:51:27.709Z,100739.94
2022-12-19T16:56:41.471Z,100737.38
2022-12-19T17:01:45.162Z,100748.69
2022-12-19T17:06:47.456Z,100746.13
2022-12-19T17:11:55.909Z,100755.81
2022-12-19T17:16:59.216Z,100755.03
2022-12-19T17:22:00.694Z,100771.59
2022-12-19T17:27:02.191Z,100764.53
2022-12-19T17:32:04.393Z,100776.72
2022-12-19T17:37:06.183Z,100766.00
2022-12-19T17:42:21.731Z,100742.34
2022-12-19T17:47:23.591Z,100737.09
2022-12-19T17:52:24.985Z,100735.38
2022-12-19T17:57:26.889Z,100740.44
2022-12-19T18:02:28.938Z,100753.41
2022-12-19T18:07:30.419Z,100733.28
2022-12-19T18:12:31.805Z,100729.00
2022-12-19T18:17:33.750Z,100712.56
2022-12-19T18:22:36.054Z,100722.47
2022-12-19T18:27:37.575Z,100700.56
2022-12-19T18:32:38.954Z,100687.59
2022-12-19T18:37:40.413Z,100700.09
2022-12-19T18:42:42.796Z,100709.53
2022-12-19T18:47:51.322Z,100720.75
2022-12-19T18:52:54.293Z,100713.13
2022-12-19T18:57:55.874Z,100720.94
2022-12-19T19:03:01.340Z,100734.81
2022-12-19T19:08:21.509Z,100739.28
2022-12-19T19:13:26.844Z,100734.81
2022-12-19T19:18:35.304Z,100726.78
2022-12-19T19:23:44.719Z,100720.63
2022-12-19T19:28:52.018Z,100713.25
2022-12-19T19:34:00.713Z,100726.31
2022-12-19T19:39:04.487Z,100729.72
2022-12-19T19:44:08.527Z,100725.13
2022-12-19T19:49:11.094Z,100731.53
2022-12-19T19:54:12.667Z,100716.59
2022-12-19T19:59:15.820Z,100711.19
2022-12-19T20:04:17.268Z,100725.13
2022-12-19T20:09:19.207Z,100740.91
2022-12-19T20:14:21.299Z,100729.34
2022-12-19T20:19:22.744Z,100742.13
2022-12-19T20:24:24.877Z,100729.66
2022-12-19T20:29:27.182Z,100731.47
2022-12-19T20:34:30.147Z,100739.44
2022-12-19T20:39:34.088Z,100762.25
2022-12-19T20:44:35.545Z,100766.28
2022-12-19T20:49:37.108Z,100749.03
2022-12-19T20:54:38.497Z,100749.75
2022-12-19T20:59:41.146Z,100746.28
2022-12-19T21:04:42.574Z,100747.88
2022-12-19T21:09:50.176Z,100759.56
2022-12-19T21:14:51.560Z,100757.00
2022-12-19T21:19:53.076Z,100748.19
2022-12-19T21:24:54.446Z,100753.72
2022-12-19T21:29:56.044Z,100752.91
2022-12-19T21:34:57.464Z,100760.91
2022-12-19T21:39:58.967Z,100747.03
2022-12-19T21:45:00.595Z,100746.41
2022-12-19T21:50:01.993Z,100738.47
2022-12-19T21:55:04.892Z,100750.69
2022-12-19T22:00:09.523Z,100734.81
2022-12-19T22:05:11.149Z,100731.84
2022-12-19T22:10:12.545Z,100726.72
2022-12-19T22:15:13.989Z,100723.84
2022-12-19T22:20:15.580Z,100725.28
2022-12-19T22:25:17.606Z,100727.81
2022-12-19T22:30:19.203Z,100724.06
2022-12-19T22:35:20.718Z,100726.69
2022-12-19T22:40:22.392Z,100709.41
2022-12-19T22:45:23.845Z,100713.81
2022-12-19T22:50:25.215Z,100725.19
2022-12-19T22:55:27.601Z,100712.81
2022-12-19T23:00:29.002Z,100720.63
2022-12-19T23:05:31.767Z,100695.00
2022-12-19T23:10:33.617Z,100706.16
2022-12-19T23:15:35.479Z,100702.50
2022-12-19T23:20:37.266Z,100685.84
2022-12-19T23:25:40.077Z,100692.66
2022-12-19T23:30:41.487Z,100690.38
2022-12-19T23:35:43.332Z,100695.28
2022-12-19T23:40:44.950Z,100698.69
2022-12-19T23:45:46.646Z,100694.09
2022-12-19T23:50:57.192Z,100691.75
2022-12-19T23:55:59.244Z,100690.03
